This is the latest recevied weather packets stored in our database for station/object OE-11280. If no packets are shown the sender has not sent any weather packets the latest 10 day(s).
| Time | Temp. | Humidity | Pressure | Rain* | Wind** | Luminosity | Snow |
|---|---|---|---|---|---|---|---|
| 1787824519 | 23.33° C | 63% | 1015 hPa | 0 mm | - | 541 W/m² | - |
| 1787823692 | 22.78° C | 61% | 1015.4 hPa | 0 mm | - | 444 W/m² | - |
| 1787823319 | 22.78° C | 61% | 1015.6 hPa | 0 mm | - | 596 W/m² | - |
| 1787822718 | 22.22° C | 64% | 1015.8 hPa | 0 mm | - | 596 W/m² | - |
| 1787821892 | 22.22° C | 64% | 1015.8 hPa | 0 mm | - | 669 W/m² | - |
| 1787821518 | 21.67° C | 65% | 1016.2 hPa | 0 mm | - | 523 W/m² | - |
| 1787820919 | 21.11° C | 66% | 1016.2 hPa | 0 mm | - | 432 W/m² | - |
| 1787820092 | 20.56° C | 69% | 1016.4 hPa | 0 mm | - | 517 W/m² | - |
| 1787819719 | 20° C | 71% | 1016.6 hPa | 0 mm | - | 505 W/m² | - |
| 1787819119 | 20° C | 71% | 1016.7 hPa | 0 mm | - | 414 W/m² | - |
| 1787818292 | 19.44° C | 72% | 1016.8 hPa | 0 mm | - | 450 W/m² | - |
| 1787817918 | 18.89° C | 72% | 1017.2 hPa | 0 mm | - | 468 W/m² | - |
| 1787817318 | 18.89° C | 73% | 1017.3 hPa | 0 mm | - | 493 W/m² | - |
| 1787816492 | 18.33° C | 76% | 1017.6 hPa | 0 mm | - | 487 W/m² | - |
| 1787816118 | 17.78° C | 77% | 1017.8 hPa | 0 mm | - | 481 W/m² | - |
| 1787815516 | 17.78° C | 78% | 1017.8 hPa | 0 mm | - | 420 W/m² | - |
| 1787814692 | 17.22° C | 79% | 1018.1 hPa | 0 mm | - | 401 W/m² | - |
| 1787813719 | 16.11° C | 82% | 1018.5 hPa | 0 mm | - | 347 W/m² | - |
| 1787812892 | 16.11° C | 83% | 1018.7 hPa | 0 mm | - | 322 W/m² | - |
| 1787812519 | 15.56° C | 84% | 1019 hPa | 0 mm | - | 298 W/m² | - |
| 1787811919 | 15° C | 87% | 1019.2 hPa | 0 mm | - | 268 W/m² | - |
| 1787811331 | 15° C | 88% | 1019.3 hPa | 0 mm | - | 237 W/m² | - |
| 1787810719 | 14.44° C | 90% | 1019.4 hPa | 0 mm | - | 116 W/m² | - |
| 1787810119 | 14.44° C | 91% | 1019.6 hPa | 0 mm | - | 140 W/m² | - |
| 1787809292 | 13.89° C | 91% | 1019.7 hPa | 0 mm | - | 122 W/m² | - |
* Rain latest hour (hover to see other rain measurements)
** Current wind speed in m/s (hover to see current wind gust speed)